sensor_id;sensor_type;location;lat;lon;timestamp;pressure;altitude;pressure_sealevel;temperature;humidity
37202;BME280;37799;52.390;6.136;2022-10-26T00:01:06;101478.97;;;9.75;100.00
37202;BME280;37799;52.390;6.136;2022-10-26T00:03:32;101480.69;;;9.77;100.00
37202;BME280;37799;52.390;6.136;2022-10-26T00:06:03;101470.28;;;9.81;100.00
37202;BME280;37799;52.390;6.136;2022-10-26T00:08:29;101476.34;;;9.80;100.00
37202;BME280;37799;52.390;6.136;2022-10-26T00:10:56;101472.09;;;9.73;100.00
37202;BME280;37799;52.390;6.136;2022-10-26T00:13:22;101472.19;;;9.67;100.00
37202;BME280;37799;52.390;6.136;2022-10-26T00:15:47;101473.06;;;9.63;100.00
37202;BME280;37799;52.390;6.136;2022-10-26T00:18:12;101467.94;;;9.60;100.00
37202;BME280;37799;52.390;6.136;2022-10-26T00:20:38;101473.97;;;9.60;100.00
37202;BME280;37799;52.390;6.136;2022-10-26T00:23:03;101466.25;;;9.59;100.00
37202;BME280;37799;52.390;6.136;2022-10-26T00:25:28;101465.44;;;9.55;100.00
37202;BME280;37799;52.390;6.136;2022-10-26T00:27:53;101462.88;;;9.54;100.00
37202;BME280;37799;52.390;6.136;2022-10-26T00:30:19;101473.38;;;9.40;100.00
37202;BME280;37799;52.390;6.136;2022-10-26T00:32:44;101468.22;;;9.38;100.00
37202;BME280;37799;52.390;6.136;2022-10-26T00:35:09;101459.59;;;9.36;100.00
37202;BME280;37799;52.390;6.136;2022-10-26T00:37:34;101470.00;;;9.30;100.00
37202;BME280;37799;52.390;6.136;2022-10-26T00:40:00;101463.16;;;9.26;100.00
37202;BME280;37799;52.390;6.136;2022-10-26T00:42:25;101462.25;;;9.30;100.00
37202;BME280;37799;52.390;6.136;2022-10-26T00:50:07;101446.81;;;9.26;100.00
37202;BME280;37799;52.390;6.136;2022-10-26T00:52:33;101447.66;;;9.26;100.00
37202;BME280;37799;52.390;6.136;2022-10-26T00:54:59;101440.69;;;9.33;100.00
37202;BME280;37799;52.390;6.136;2022-10-26T00:57:25;101445.78;;;9.37;100.00
37202;BME280;37799;52.390;6.136;2022-10-26T00:59:52;101438.94;;;9.35;100.00
37202;BME280;37799;52.390;6.136;2022-10-26T01:02:18;101437.22;;;9.34;100.00
37202;BME280;37799;52.390;6.136;2022-10-26T01:04:45;101442.38;;;9.38;100.00
37202;BME280;37799;52.390;6.136;2022-10-26T01:07:11;101444.00;;;9.44;100.00
37202;BME280;37799;52.390;6.136;2022-10-26T01:09:38;101440.56;;;9.43;100.00
37202;BME280;37799;52.390;6.136;2022-10-26T01:12:03;101436.19;;;9.49;100.00
37202;BME280;37799;52.390;6.136;2022-10-26T01:14:29;101433.50;;;9.58;100.00
37202;BME280;37799;52.390;6.136;2022-10-26T01:17:01;101430.09;;;9.56;100.00
37202;BME280;37799;52.390;6.136;2022-10-26T01:22:15;101427.47;;;9.59;100.00
37202;BME280;37799;52.390;6.136;2022-10-26T01:27:34;101410.16;;;9.64;100.00
37202;BME280;37799;52.390;6.136;2022-10-26T01:35:51;101406.53;;;9.79;100.00
37202;BME280;37799;52.390;6.136;2022-10-26T01:41:16;101399.63;;;9.76;100.00
37202;BME280;37799;52.390;6.136;2022-10-26T01:43:52;101396.97;;;9.82;100.00
37202;BME280;37799;52.390;6.136;2022-10-26T01:46:20;101399.56;;;9.82;100.00
37202;BME280;37799;52.390;6.136;2022-10-26T01:48:49;101395.31;;;9.78;100.00
37202;BME280;37799;52.390;6.136;2022-10-26T01:51:17;101396.16;;;9.80;100.00
37202;BME280;37799;52.390;6.136;2022-10-26T01:53:44;101396.94;;;9.85;100.00
37202;BME280;37799;52.390;6.136;2022-10-26T01:56:21;101390.81;;;9.89;100.00
37202;BME280;37799;52.390;6.136;2022-10-26T01:59:12;101386.53;;;9.88;100.00
37202;BME280;37799;52.390;6.136;2022-10-26T02:04:36;101380.47;;;9.92;100.00
37202;BME280;37799;52.390;6.136;2022-10-26T02:07:11;101378.75;;;9.91;100.00
37202;BME280;37799;52.390;6.136;2022-10-26T02:12:32;101371.13;;;9.82;100.00
37202;BME280;37799;52.390;6.136;2022-10-26T02:15:07;101367.69;;;9.80;100.00
37202;BME280;37799;52.390;6.136;2022-10-26T02:20:28;101357.31;;;9.83;100.00
37202;BME280;37799;52.390;6.136;2022-10-26T02:22:56;101360.72;;;9.85;100.00
37202;BME280;37799;52.390;6.136;2022-10-26T02:25:27;101361.59;;;9.84;100.00
37202;BME280;37799;52.390;6.136;2022-10-26T02:27:58;101368.34;;;9.94;100.00
37202;BME280;37799;52.390;6.136;2022-10-26T02:30:25;101364.00;;;9.96;100.00
37202;BME280;37799;52.390;6.136;2022-10-26T02:32:53;101365.84;;;9.88;100.00
37202;BME280;37799;52.390;6.136;2022-10-26T02:35:24;101357.34;;;9.80;100.00
37202;BME280;37799;52.390;6.136;2022-10-26T02:37:52;101350.38;;;9.85;100.00
37202;BME280;37799;52.390;6.136;2022-10-26T02:40:23;101343.59;;;9.78;100.00
37202;BME280;37799;52.390;6.136;2022-10-26T02:42:51;101334.25;;;9.68;100.00
37202;BME280;37799;52.390;6.136;2022-10-26T02:45:20;101340.19;;;9.73;100.00
37202;BME280;37799;52.390;6.136;2022-10-26T02:47:47;101346.19;;;9.75;100.00
37202;BME280;37799;52.390;6.136;2022-10-26T02:50:13;101338.50;;;9.72;100.00
37202;BME280;37799;52.390;6.136;2022-10-26T02:53:14;101339.38;;;9.71;100.00
37202;BME280;37799;52.390;6.136;2022-10-26T02:55:47;101338.28;;;9.86;100.00
37202;BME280;37799;52.390;6.136;2022-10-26T02:58:26;101343.44;;;9.87;100.00
37202;BME280;37799;52.390;6.136;2022-10-26T03:00:53;101357.94;;;9.97;100.00
37202;BME280;37799;52.390;6.136;2022-10-26T03:03:19;101360.41;;;10.07;100.00
37202;BME280;37799;52.390;6.136;2022-10-26T03:05:45;101354.41;;;10.04;100.00
37202;BME280;37799;52.390;6.136;2022-10-26T03:08:10;101355.19;;;10.10;100.00
37202;BME280;37799;52.390;6.136;2022-10-26T03:10:40;101356.81;;;10.17;100.00
37202;BME280;37799;52.390;6.136;2022-10-26T03:13:06;101350.75;;;10.18;100.00
37202;BME280;37799;52.390;6.136;2022-10-26T03:15:31;101353.38;;;10.13;100.00
37202;BME280;37799;52.390;6.136;2022-10-26T03:17:57;101349.94;;;10.13;100.00
37202;BME280;37799;52.390;6.136;2022-10-26T03:20:22;101349.91;;;10.14;100.00
37202;BME280;37799;52.390;6.136;2022-10-26T03:22:47;101350.81;;;10.13;100.00
37202;BME280;37799;52.390;6.136;2022-10-26T03:25:13;101349.94;;;10.13;100.00
37202;BME280;37799;52.390;6.136;2022-10-26T03:27:39;101347.41;;;10.10;100.00
37202;BME280;37799;52.390;6.136;2022-10-26T03:30:05;101350.94;;;10.05;100.00
37202;BME280;37799;52.390;6.136;2022-10-26T03:32:31;101350.13;;;10.03;100.00
37202;BME280;37799;52.390;6.136;2022-10-26T03:34:56;101349.13;;;10.11;100.00
37202;BME280;37799;52.390;6.136;2022-10-26T03:37:21;101346.53;;;10.11;100.00
37202;BME280;37799;52.390;6.136;2022-10-26T03:39:46;101356.00;;;10.12;100.00
37202;BME280;37799;52.390;6.136;2022-10-26T03:42:12;101351.72;;;10.11;100.00
37202;BME280;37799;52.390;6.136;2022-10-26T03:44:37;101349.94;;;10.16;100.00
37202;BME280;37799;52.390;6.136;2022-10-26T03:47:02;101339.50;;;10.19;100.00
37202;BME280;37799;52.390;6.136;2022-10-26T03:49:28;101341.22;;;10.20;100.00
37202;BME280;37799;52.390;6.136;2022-10-26T03:51:53;101330.88;;;10.20;100.00
37202;BME280;37799;52.390;6.136;2022-10-26T03:54:18;101324.81;;;10.22;100.00
37202;BME280;37799;52.390;6.136;2022-10-26T03:56:43;101332.56;;;10.24;100.00
37202;BME280;37799;52.390;6.136;2022-10-26T03:59:09;101331.75;;;10.19;100.00
37202;BME280;37799;52.390;6.136;2022-10-26T04:01:35;101325.66;;;10.23;100.00
37202;BME280;37799;52.390;6.136;2022-10-26T04:04:00;101320.53;;;10.21;100.00
37202;BME280;37799;52.390;6.136;2022-10-26T04:06:25;101317.84;;;10.26;100.00
37202;BME280;37799;52.390;6.136;2022-10-26T04:08:51;101315.22;;;10.29;100.00
37202;BME280;37799;52.390;6.136;2022-10-26T04:11:21;101310.91;;;10.28;100.00
37202;BME280;37799;52.390;6.136;2022-10-26T04:13:46;101313.50;;;10.28;100.00
37202;BME280;37799;52.390;6.136;2022-10-26T04:16:12;101311.78;;;10.27;100.00
37202;BME280;37799;52.390;6.136;2022-10-26T04:18:37;101312.59;;;10.30;100.00
37202;BME280;37799;52.390;6.136;2022-10-26T04:21:02;101326.22;;;10.42;100.00
37202;BME280;37799;52.390;6.136;2022-10-26T04:23:27;101326.00;;;10.52;100.00
37202;BME280;37799;52.390;6.136;2022-10-26T04:25:53;101335.59;;;10.47;100.00
37202;BME280;37799;52.390;6.136;2022-10-26T04:28:18;101335.59;;;10.47;100.00
37202;BME280;37799;52.390;6.136;2022-10-26T04:30:43;101332.97;;;10.50;100.00
37202;BME280;37799;52.390;6.136;2022-10-26T04:33:09;101336.47;;;10.48;100.00
37202;BME280;37799;52.390;6.136;2022-10-26T04:35:34;101333.72;;;10.57;100.00
37202;BME280;37799;52.390;6.136;2022-10-26T04:38:01;101324.97;;;10.62;100.00
37202;BME280;37799;52.390;6.136;2022-10-26T04:40:27;101320.81;;;10.55;100.00
37202;BME280;37799;52.390;6.136;2022-10-26T04:42:53;101326.91;;;10.51;100.00
37202;BME280;37799;52.390;6.136;2022-10-26T04:45:19;101319.00;;;10.59;100.00
37202;BME280;37799;52.390;6.136;2022-10-26T04:47:45;101318.28;;;10.51;100.00
37202;BME280;37799;52.390;6.136;2022-10-26T04:50:11;101318.31;;;10.49;100.00
37202;BME280;37799;52.390;6.136;2022-10-26T04:52:37;101319.94;;;10.53;100.00
37202;BME280;37799;52.390;6.136;2022-10-26T04:55:03;101330.31;;;10.53;100.00
37202;BME280;37799;52.390;6.136;2022-10-26T04:57:31;101322.53;;;10.53;100.00
37202;BME280;37799;52.390;6.136;2022-10-26T04:59:57;101323.25;;;10.61;100.00
37202;BME280;37799;52.390;6.136;2022-10-26T05:02:22;101323.25;;;10.61;100.00
37202;BME280;37799;52.390;6.136;2022-10-26T05:04:47;101320.72;;;10.60;100.00
37202;BME280;37799;52.390;6.136;2022-10-26T05:07:13;101323.19;;;10.64;100.00
37202;BME280;37799;52.390;6.136;2022-10-26T05:09:38;101328.25;;;10.72;100.00
37202;BME280;37799;52.390;6.136;2022-10-26T05:12:03;101323.13;;;10.68;100.00
37202;BME280;37799;52.390;6.136;2022-10-26T05:14:29;101322.16;;;10.75;100.00
37202;BME280;37799;52.390;6.136;2022-10-26T05:16:54;101321.34;;;10.73;100.00
37202;BME280;37799;52.390;6.136;2022-10-26T05:19:20;101321.31;;;10.74;100.00
37202;BME280;37799;52.390;6.136;2022-10-26T05:21:45;101322.97;;;10.77;100.00
37202;BME280;37799;52.390;6.136;2022-10-26T05:24:11;101319.50;;;10.78;100.00
37202;BME280;37799;52.390;6.136;2022-10-26T05:26:36;101304.16;;;10.69;100.00
37202;BME280;37799;52.390;6.136;2022-10-26T05:29:01;101300.69;;;10.70;100.00
37202;BME280;37799;52.390;6.136;2022-10-26T05:31:27;101301.56;;;10.69;100.00
37202;BME280;37799;52.390;6.136;2022-10-26T05:33:52;101306.50;;;10.79;100.00
37202;BME280;37799;52.390;6.136;2022-10-26T05:36:18;101303.94;;;10.78;100.00
37202;BME280;37799;52.390;6.136;2022-10-26T05:38:43;101303.09;;;10.77;100.00
37202;BME280;37799;52.390;6.136;2022-10-26T05:41:09;101308.41;;;10.71;100.00
37202;BME280;37799;52.390;6.136;2022-10-26T05:43:34;101307.56;;;10.71;100.00
37202;BME280;37799;52.390;6.136;2022-10-26T05:45:59;101304.97;;;10.71;100.00
37202;BME280;37799;52.390;6.136;2022-10-26T05:48:25;101309.22;;;10.73;100.00
37202;BME280;37799;52.390;6.136;2022-10-26T05:50:50;101315.56;;;10.58;100.00
37202;BME280;37799;52.390;6.136;2022-10-26T05:53:16;101318.22;;;10.54;100.00
37202;BME280;37799;52.390;6.136;2022-10-26T05:55:42;101318.34;;;10.48;100.00
37202;BME280;37799;52.390;6.136;2022-10-26T05:58:10;101314.78;;;10.55;100.00
37202;BME280;37799;52.390;6.136;2022-10-26T06:00:40;101323.59;;;10.43;100.00
37202;BME280;37799;52.390;6.136;2022-10-26T06:05:54;101314.25;;;10.34;100.00
37202;BME280;37799;52.390;6.136;2022-10-26T06:08:21;101318.78;;;10.22;100.00
37202;BME280;37799;52.390;6.136;2022-10-26T06:10:47;101318.00;;;10.17;100.00
37202;BME280;37799;52.390;6.136;2022-10-26T06:13:13;101325.75;;;10.17;100.00
37202;BME280;37799;52.390;6.136;2022-10-26T06:16:00;101317.97;;;10.15;100.00
37202;BME280;37799;52.390;6.136;2022-10-26T06:24:18;101325.03;;;10.07;100.00
37202;BME280;37799;52.390;6.136;2022-10-26T06:29:36;101322.13;;;10.27;100.00
37202;BME280;37799;52.390;6.136;2022-10-26T06:32:07;101332.56;;;10.24;100.00
37202;BME280;37799;52.390;6.136;2022-10-26T06:34:34;101326.53;;;10.20;100.00
37202;BME280;37799;52.390;6.136;2022-10-26T06:37:01;101327.38;;;10.24;100.00
37202;BME280;37799;52.390;6.136;2022-10-26T06:39:28;101331.69;;;10.23;100.00
37202;BME280;37799;52.390;6.136;2022-10-26T06:41:59;101331.63;;;10.26;100.00
37202;BME280;37799;52.390;6.136;2022-10-26T06:44:24;101338.53;;;10.26;100.00
37202;BME280;37799;52.390;6.136;2022-10-26T06:47:06;101335.09;;;10.27;100.00
37202;BME280;37799;52.390;6.136;2022-10-26T06:49:41;101330.69;;;10.32;100.00
37202;BME280;37799;52.390;6.136;2022-10-26T06:52:23;101329.69;;;10.39;100.00
37202;BME280;37799;52.390;6.136;2022-10-26T06:54:54;101323.63;;;10.40;100.00
37202;BME280;37799;52.390;6.136;2022-10-26T06:57:25;101326.22;;;10.40;100.00
37202;BME280;37799;52.390;6.136;2022-10-26T06:59:53;101330.56;;;10.38;100.00
37202;BME280;37799;52.390;6.136;2022-10-26T07:02:20;101333.00;;;10.47;100.00
37202;BME280;37799;52.390;6.136;2022-10-26T07:04:45;101338.19;;;10.47;100.00
37202;BME280;37799;52.390;6.136;2022-10-26T07:07:13;101338.97;;;10.52;100.00
37202;BME280;37799;52.390;6.136;2022-10-26T07:09:39;101338.97;;;10.52;100.00
37202;BME280;37799;52.390;6.136;2022-10-26T07:12:05;101334.34;;;10.70;100.00
37202;BME280;37799;52.390;6.136;2022-10-26T07:14:30;101337.69;;;10.75;100.00
37202;BME280;37799;52.390;6.136;2022-10-26T07:16:56;101329.81;;;10.79;100.00
37202;BME280;37799;52.390;6.136;2022-10-26T07:19:21;101333.16;;;10.86;100.00
37202;BME280;37799;52.390;6.136;2022-10-26T07:21:47;101333.75;;;11.00;100.00
37202;BME280;37799;52.390;6.136;2022-10-26T07:24:12;101331.00;;;11.09;100.00
37202;BME280;37799;52.390;6.136;2022-10-26T07:26:38;101320.38;;;11.21;100.00
37202;BME280;37799;52.390;6.136;2022-10-26T07:29:03;101332.22;;;11.32;100.00
37202;BME280;37799;52.390;6.136;2022-10-26T07:31:28;101344.03;;;11.45;100.00
37202;BME280;37799;52.390;6.136;2022-10-26T07:33:53;101342.09;;;11.56;100.00
37202;BME280;37799;52.390;6.136;2022-10-26T07:36:19;101347.34;;;11.53;100.00
37202;BME280;37799;52.390;6.136;2022-10-26T07:38:44;101337.78;;;11.55;100.00
37202;BME280;37799;52.390;6.136;2022-10-26T07:41:09;101341.22;;;11.56;100.00
37202;BME280;37799;52.390;6.136;2022-10-26T07:43:35;101346.25;;;11.63;100.00
37202;BME280;37799;52.390;6.136;2022-10-26T07:46:00;101352.00;;;11.77;100.00
37202;BME280;37799;52.390;6.136;2022-10-26T07:48:25;101357.59;;;12.33;100.00
37202;BME280;37799;52.390;6.136;2022-10-26T07:50:51;101354.22;;;13.27;100.00
37202;BME280;37799;52.390;6.136;2022-10-26T07:53:16;101355.56;;;13.98;100.00
37202;BME280;37799;52.390;6.136;2022-10-26T07:55:41;101365.78;;;14.57;100.00
37202;BME280;37799;52.390;6.136;2022-10-26T07:58:07;101361.22;;;15.37;100.00
37202;BME280;37799;52.390;6.136;2022-10-26T08:00:32;101360.25;;;16.07;100.00
37202;BME280;37799;52.390;6.136;2022-10-26T08:02:57;101357.31;;;16.57;100.00
37202;BME280;37799;52.390;6.136;2022-10-26T08:05:23;101358.88;;;17.01;100.00
37202;BME280;37799;52.390;6.136;2022-10-26T08:07:48;101367.28;;;17.47;100.00
37202;BME280;37799;52.390;6.136;2022-10-26T08:10:14;101370.59;;;17.51;100.00
37202;BME280;37799;52.390;6.136;2022-10-26T08:12:41;101371.25;;;17.75;100.00
37202;BME280;37799;52.390;6.136;2022-10-26T08:15:08;101375.84;;;17.88;100.00
37202;BME280;37799;52.390;6.136;2022-10-26T08:17:34;101385.06;;;18.14;100.00
37202;BME280;37799;52.390;6.136;2022-10-26T08:19:59;101378.44;;;18.42;100.00
37202;BME280;37799;52.390;6.136;2022-10-26T08:22:24;101381.47;;;18.86;100.00
37202;BME280;37799;52.390;6.136;2022-10-26T08:24:52;101384.00;;;19.05;100.00
37202;BME280;37799;52.390;6.136;2022-10-26T08:27:17;101389.66;;;19.13;100.00
37202;BME280;37799;52.390;6.136;2022-10-26T08:29:42;101388.78;;;18.97;100.00
37202;BME280;37799;52.390;6.136;2022-10-26T08:32:08;101386.66;;;19.21;100.00
37202;BME280;37799;52.390;6.136;2022-10-26T08:34:33;101382.69;;;19.29;100.00
37202;BME280;37799;52.390;6.136;2022-10-26T08:36:58;101379.41;;;19.41;100.00
37202;BME280;37799;52.390;6.136;2022-10-26T08:39:24;101382.59;;;19.15;100.00
37202;BME280;37799;52.390;6.136;2022-10-26T08:41:57;101372.81;;;19.01;100.00
37202;BME280;37799;52.390;6.136;2022-10-26T08:44:35;101371.06;;;18.67;100.00
37202;BME280;37799;52.390;6.136;2022-10-26T08:47:09;101368.28;;;18.70;100.00
37202;BME280;37799;52.390;6.136;2022-10-26T08:49:43;101375.06;;;18.74;100.00
37202;BME280;37799;52.390;6.136;2022-10-26T08:52:14;101382.59;;;18.65;100.00
37202;BME280;37799;52.390;6.136;2022-10-26T08:54:48;101381.75;;;18.28;100.00
37202;BME280;37799;52.390;6.136;2022-10-26T08:57:21;101392.94;;;18.49;100.00
37202;BME280;37799;52.390;6.136;2022-10-26T08:59:59;101398.66;;;18.40;100.00
37202;BME280;37799;52.390;6.136;2022-10-26T09:02:25;101399.44;;;18.42;100.00
37202;BME280;37799;52.390;6.136;2022-10-26T09:04:52;101408.13;;;18.60;100.00
37202;BME280;37799;52.390;6.136;2022-10-26T09:13:19;101382.97;;;19.07;100.00
37202;BME280;37799;52.390;6.136;2022-10-26T09:18:40;101395.13;;;18.93;100.00
37202;BME280;37799;52.390;6.136;2022-10-26T09:24:28;101398.47;;;19.12;100.00
37202;BME280;37799;52.390;6.136;2022-10-26T09:26:53;101401.38;;;18.90;100.00
37202;BME280;37799;52.390;6.136;2022-10-26T09:29:22;101399.59;;;18.39;100.00
37202;BME280;37799;52.390;6.136;2022-10-26T09:31:50;101398.94;;;18.34;100.00
37202;BME280;37799;52.390;6.136;2022-10-26T09:34:40;101400.00;;;18.83;100.00
37202;BME280;37799;52.390;6.136;2022-10-26T09:37:19;101406.38;;;18.95;100.00
37202;BME280;37799;52.390;6.136;2022-10-26T09:39:51;101406.44;;;19.43;100.00
37202;BME280;37799;52.390;6.136;2022-10-26T09:42:37;101415.25;;;19.42;100.00
37202;BME280;37799;52.390;6.136;2022-10-26T09:45:11;101405.38;;;19.30;100.00
37202;BME280;37799;52.390;6.136;2022-10-26T09:47:38;101410.31;;;19.69;100.00
37202;BME280;37799;52.390;6.136;2022-10-26T09:50:31;101414.28;;;19.77;100.00
37202;BME280;37799;52.390;6.136;2022-10-26T09:52:57;101409.44;;;19.69;100.00
37202;BME280;37799;52.390;6.136;2022-10-26T09:55:23;101414.91;;;19.49;100.00
37202;BME280;37799;52.390;6.136;2022-10-26T09:57:51;101408.84;;;19.64;100.00
37202;BME280;37799;52.390;6.136;2022-10-26T10:00:19;101410.03;;;19.90;100.00
37202;BME280;37799;52.390;6.136;2022-10-26T10:02:53;101411.19;;;20.31;100.00
37202;BME280;37799;52.390;6.136;2022-10-26T10:05:32;101409.63;;;20.59;100.00
37202;BME280;37799;52.390;6.136;2022-10-26T10:11:13;101413.69;;;20.93;100.00
37202;BME280;37799;52.390;6.136;2022-10-26T10:13:43;101407.88;;;20.88;100.00
37202;BME280;37799;52.390;6.136;2022-10-26T10:16:22;101420.75;;;20.48;100.00
37202;BME280;37799;52.390;6.136;2022-10-26T10:18:53;101419.81;;;20.49;100.00
37202;BME280;37799;52.390;6.136;2022-10-26T10:21:20;101411.09;;;20.17;100.00
37202;BME280;37799;52.390;6.136;2022-10-26T10:23:50;101422.41;;;19.88;100.00
37202;BME280;37799;52.390;6.136;2022-10-26T10:26:18;101409.59;;;19.66;100.00
37202;BME280;37799;52.390;6.136;2022-10-26T10:28:59;101418.34;;;19.66;100.00
37202;BME280;37799;52.390;6.136;2022-10-26T10:31:32;101410.22;;;19.38;100.00
37202;BME280;37799;52.390;6.136;2022-10-26T10:33:58;101420.81;;;19.52;100.00
37202;BME280;37799;52.390;6.136;2022-10-26T10:36:26;101424.28;;;19.70;100.00
37202;BME280;37799;52.390;6.136;2022-10-26T10:38:53;101439.72;;;20.08;100.00
37202;BME280;37799;52.390;6.136;2022-10-26T10:41:29;101439.09;;;20.02;100.00
37202;BME280;37799;52.390;6.136;2022-10-26T10:44:04;101456.78;;;20.62;100.00
37202;BME280;37799;52.390;6.136;2022-10-26T10:46:30;101455.06;;;20.91;100.00
37202;BME280;37799;52.390;6.136;2022-10-26T10:49:04;101466.03;;;21.13;100.00
37202;BME280;37799;52.390;6.136;2022-10-26T10:51:38;101461.84;;;21.25;100.00
37202;BME280;37799;52.390;6.136;2022-10-26T10:54:04;101469.50;;;21.14;100.00
37202;BME280;37799;52.390;6.136;2022-10-26T10:56:46;101466.06;;;21.28;100.00
37202;BME280;37799;52.390;6.136;2022-10-26T10:59:38;101462.69;;;21.54;100.00
37202;BME280;37799;52.390;6.136;2022-10-26T11:02:32;101471.78;;;21.34;100.00
37202;BME280;37799;52.390;6.136;2022-10-26T11:05:19;101478.19;;;21.30;100.00
37202;BME280;37799;52.390;6.136;2022-10-26T11:07:53;101483.03;;;21.38;100.00
37202;BME280;37799;52.390;6.136;2022-10-26T11:10:22;101482.28;;;21.06;100.00
37202;BME280;37799;52.390;6.136;2022-10-26T11:12:57;101487.34;;;21.09;100.00
37202;BME280;37799;52.390;6.136;2022-10-26T11:15:27;101487.41;;;20.93;100.00
37202;BME280;37799;52.390;6.136;2022-10-26T11:18:17;101491.66;;;21.26;100.00
37202;BME280;37799;52.390;6.136;2022-10-26T11:21:02;101484.09;;;21.19;100.00
37202;BME280;37799;52.390;6.136;2022-10-26T11:23:37;101476.22;;;21.48;100.00
37202;BME280;37799;52.390;6.136;2022-10-26T11:27:02;101492.53;;;21.40;100.00
37202;BME280;37799;52.390;6.136;2022-10-26T11:29:11;101493.38;;;21.41;100.00
37202;BME280;37799;52.390;6.136;2022-10-26T11:31:45;101497.50;;;21.73;100.00
37202;BME280;37799;52.390;6.136;2022-10-26T11:34:22;101492.63;;;21.53;100.00
37202;BME280;37799;52.390;6.136;2022-10-26T11:36:55;101499.97;;;21.76;100.00
37202;BME280;37799;52.390;6.136;2022-10-26T11:39:33;101508.78;;;21.90;100.00
37202;BME280;37799;52.390;6.136;2022-10-26T11:42:41;101510.94;;;22.12;100.00
37202;BME280;37799;52.390;6.136;2022-10-26T11:47:47;101519.22;;;21.34;100.00
37202;BME280;37799;52.390;6.136;2022-10-26T11:50:22;101520.16;;;21.03;100.00
37202;BME280;37799;52.390;6.136;2022-10-26T11:52:59;101530.19;;;21.12;100.00
37202;BME280;37799;52.390;6.136;2022-10-26T11:55:27;101527.94;;;20.90;100.00
37202;BME280;37799;52.390;6.136;2022-10-26T11:57:53;101519.31;;;21.03;100.00
37202;BME280;37799;52.390;6.136;2022-10-26T12:00:20;101526.59;;;21.13;100.00
37202;BME280;37799;52.390;6.136;2022-10-26T12:02:50;101528.09;;;21.17;100.00
37202;BME280;37799;52.390;6.136;2022-10-26T12:05:31;101534.63;;;20.96;100.00
37202;BME280;37799;52.390;6.136;2022-10-26T12:08:05;101533.88;;;20.94;100.00
37202;BME280;37799;52.390;6.136;2022-10-26T12:10:34;101535.38;;;20.84;100.00
37202;BME280;37799;52.390;6.136;2022-10-26T12:13:12;101542.28;;;21.01;100.00
37202;BME280;37799;52.390;6.136;2022-10-26T12:15:42;101541.28;;;21.17;100.00
37202;BME280;37799;52.390;6.136;2022-10-26T12:18:25;101545.97;;;21.12;100.00
37202;BME280;37799;52.390;6.136;2022-10-26T12:20:59;101543.03;;;21.03;100.00
37202;BME280;37799;52.390;6.136;2022-10-26T12:23:36;101556.06;;;20.90;100.00
37202;BME280;37799;52.390;6.136;2022-10-26T12:34:09;101560.56;;;20.41;100.00
37202;BME280;37799;52.390;6.136;2022-10-26T12:39:31;101554.63;;;20.37;100.00
37202;BME280;37799;52.390;6.136;2022-10-26T12:42:09;101561.09;;;20.63;100.00
37202;BME280;37799;52.390;6.136;2022-10-26T12:52:43;101568.94;;;20.00;100.00
37202;BME280;37799;52.390;6.136;2022-10-26T12:57:47;101559.16;;;20.35;100.00
37202;BME280;37799;52.390;6.136;2022-10-26T13:00:22;101565.25;;;20.20;100.00
37202;BME280;37799;52.390;6.136;2022-10-26T13:03:07;101567.78;;;20.37;100.00
37202;BME280;37799;52.390;6.136;2022-10-26T13:06:07;101572.34;;;20.18;100.00
37202;BME280;37799;52.390;6.136;2022-10-26T13:08:44;101573.06;;;20.37;100.00
37202;BME280;37799;52.390;6.136;2022-10-26T13:11:15;101577.66;;;20.33;100.00
37202;BME280;37799;52.390;6.136;2022-10-26T13:13:42;101581.03;;;20.36;100.00
37202;BME280;37799;52.390;6.136;2022-10-26T13:16:12;101580.25;;;20.18;100.00
37202;BME280;37799;52.390;6.136;2022-10-26T13:18:44;101595.22;;;20.33;100.00
37202;BME280;37799;52.390;6.136;2022-10-26T13:21:14;101603.75;;;20.21;100.00
37202;BME280;37799;52.390;6.136;2022-10-26T13:26:17;101589.66;;;20.06;100.00
37202;BME280;37799;52.390;6.136;2022-10-26T13:28:56;101594.00;;;20.23;100.00
37202;BME280;37799;52.390;6.136;2022-10-26T13:34:04;101594.19;;;20.20;100.00
37202;BME280;37799;52.390;6.136;2022-10-26T13:36:43;101594.28;;;20.34;100.00
37202;BME280;37799;52.390;6.136;2022-10-26T13:39:28;101603.31;;;20.28;100.00
37202;BME280;37799;52.390;6.136;2022-10-26T13:41:55;101598.19;;;19.94;100.00
37202;BME280;37799;52.390;6.136;2022-10-26T13:44:40;101602.44;;;19.96;100.00
37202;BME280;37799;52.390;6.136;2022-10-26T13:47:13;101612.03;;;19.97;100.00
37202;BME280;37799;52.390;6.136;2022-10-26T13:49:44;101606.50;;;20.02;100.00
37202;BME280;37799;52.390;6.136;2022-10-26T13:52:15;101602.38;;;20.14;100.00
37202;BME280;37799;52.390;6.136;2022-10-26T13:54:48;101602.63;;;19.76;100.00
37202;BME280;37799;52.390;6.136;2022-10-26T14:00:07;101606.66;;;19.66;100.00
37202;BME280;37799;52.390;6.136;2022-10-26T14:02:33;101599.78;;;19.46;100.00
37202;BME280;37799;52.390;6.136;2022-10-26T14:05:00;101593.97;;;19.39;100.00
37202;BME280;37799;52.390;6.136;2022-10-26T14:07:34;101603.50;;;19.42;100.00
37202;BME280;37799;52.390;6.136;2022-10-26T14:10:02;101597.53;;;19.38;100.00
37202;BME280;37799;52.390;6.136;2022-10-26T14:12:28;101609.00;;;19.55;100.00
37202;BME280;37799;52.390;6.136;2022-10-26T14:15:00;101612.25;;;19.60;100.00
37202;BME280;37799;52.390;6.136;2022-10-26T14:17:26;101615.91;;;19.38;100.00
37202;BME280;37799;52.390;6.136;2022-10-26T14:19:52;101613.59;;;19.32;100.00
37202;BME280;37799;52.390;6.136;2022-10-26T14:22:20;101618.78;;;19.34;100.00